Time;durP1;ratioP1;P1;durP2;ratioP2;P2;SDS_P1;SDS_P2;PMS_P1;PMS_P2;Temp;Humidity;BMP_temperature;BMP_pressure;BME280_temperature;BME280_humidity;BME280_pressure;Samples;Min_cycle;Max_cycle;Signal;HPM_P1;HPM_P2
2023/06/07 00:04:16;;;;;;;1.85;1.50;;;;;;;20.68;56.86;101864.72;20969826;28;20047;-71
2023/06/07 00:14:18;;;;;;;2.40;2.00;;;;;;;20.65;57.04;101870.38;20969313;28;20053;-71
2023/06/07 00:24:21;;;;;;;2.38;1.92;;;;;;;20.63;56.79;101869.66;20959866;28;20036;-71
2023/06/07 00:34:23;;;;;;;2.80;1.60;;;;;;;20.60;56.80;101888.84;20967654;28;20056;-71
2023/06/07 00:44:24;;;;;;;2.97;1.63;;;;;;;20.58;56.87;101874.59;20960447;28;20048;-70
2023/06/07 00:54:27;;;;;;;3.20;1.75;;;;;;;20.54;56.56;101871.28;20946331;28;20048;-71
2023/06/07 01:04:30;;;;;;;1.92;1.75;;;;;;;20.54;56.43;101875.84;20916278;28;20044;-71
2023/06/07 01:14:32;;;;;;;3.00;1.70;;;;;;;20.52;56.30;101888.66;20920960;28;20155;-71
2023/06/07 01:24:35;;;;;;;1.83;1.58;;;;;;;20.47;56.00;101882.78;20909338;28;20052;-71
2023/06/07 01:34:38;;;;;;;2.05;1.60;;;;;;;20.48;56.03;101879.09;20977312;28;20048;-71
2023/06/07 01:44:40;;;;;;;1.63;1.52;;;;;;;20.45;55.91;101865.81;20949274;28;20055;-70
2023/06/07 01:54:42;;;;;;;2.60;1.70;;;;;;;20.42;55.80;101862.41;20949562;28;20567;-71
2023/06/07 02:04:46;;;;;;;1.73;1.42;;;;;;;20.32;55.80;101845.19;20946009;28;20123;-71
2023/06/07 02:14:52;;;;;;;1.77;1.45;;;;;;;20.39;55.70;101873.47;20922897;28;20505;-71
2023/06/07 02:24:54;;;;;;;2.17;1.88;;;;;;;20.37;55.79;101845.69;20915657;28;20080;-71
2023/06/07 02:34:56;;;;;;;2.33;1.75;;;;;;;20.36;55.92;101843.97;20918828;28;20555;-71
2023/06/07 02:44:57;;;;;;;2.38;1.70;;;;;;;20.36;56.01;101841.28;20936197;28;20040;-70
2023/06/07 02:55:01;;;;;;;3.58;1.90;;;;;;;20.35;56.08;101847.69;20958563;28;20076;-71
2023/06/07 03:05:04;;;;;;;4.50;1.98;;;;;;;20.34;56.12;101840.56;20996639;28;20075;-71
2023/06/07 03:15:07;;;;;;;2.97;2.22;;;;;;;20.34;56.21;101845.97;20929284;28;20044;-71
2023/06/07 03:25:11;;;;;;;4.25;2.30;;;;;;;20.32;56.49;101847.91;20929100;28;20045;-71
2023/06/07 03:35:13;;;;;;;2.42;1.88;;;;;;;20.31;56.51;101848.91;20967163;28;20115;-71
2023/06/07 03:45:16;;;;;;;2.47;1.77;;;;;;;20.31;56.75;101854.31;20942728;28;20575;-71
2023/06/07 03:55:19;;;;;;;3.05;1.95;;;;;;;20.29;56.88;101850.88;20908860;28;20044;-70
2023/06/07 04:05:24;;;;;;;3.53;2.10;;;;;;;20.31;57.00;101848.91;20899026;28;20048;-71
2023/06/07 04:15:26;;;;;;;2.88;1.98;;;;;;;20.33;57.29;101856.91;20937744;28;20053;-71
2023/06/07 04:25:32;;;;;;;2.75;1.80;;;;;;;20.31;57.32;101848.06;20901018;28;20037;-70
2023/06/07 04:35:37;;;;;;;3.08;1.92;;;;;;;20.28;57.52;101849.16;20895536;28;20032;-71
2023/06/07 04:45:41;;;;;;;3.08;1.92;;;;;;;20.27;57.78;101847.44;20917401;28;20602;-71
2023/06/07 04:55:44;;;;;;;3.92;2.08;;;;;;;20.25;58.37;101844.00;20881127;28;20477;-69
2023/06/07 05:05:46;;;;;;;4.25;1.70;;;;;;;20.27;58.76;101844.72;20891099;28;20052;-69
2023/06/07 05:15:52;;;;;;;3.58;2.20;;;;;;;20.28;59.63;101854.56;20873710;28;20056;-70
2023/06/07 05:25:54;;;;;;;5.45;1.90;;;;;;;20.33;60.50;101846.94;20889986;28;20048;-69
2023/06/07 05:35:57;;;;;;;3.08;1.77;;;;;;;20.36;61.02;101852.09;20922953;28;20051;-69
2023/06/07 05:46:01;;;;;;;3.27;1.80;;;;;;;20.40;60.88;101858.09;20966897;28;20075;-69
2023/06/07 05:56:03;;;;;;;2.80;1.60;;;;;;;20.43;60.59;101866.81;20950660;28;20048;-69
2023/06/07 06:06:16;;;;;;;5.00;2.33;;;;;;;20.42;60.40;101873.22;20940719;28;20044;-69
2023/06/07 06:16:17;;;;;;;4.88;2.40;;;;;;;20.45;60.17;101888.31;20920107;28;20080;-68
2023/06/07 06:26:19;;;;;;;4.18;2.10;;;;;;;20.48;60.06;101893.44;20975756;28;20094;-69
2023/06/07 06:36:21;;;;;;;2.97;2.00;;;;;;;20.50;59.94;101893.34;20940811;28;20052;-70
2023/06/07 06:46:22;;;;;;;4.03;2.10;;;;;;;20.53;59.71;101895.78;20964355;28;20080;-70
2023/06/07 06:56:25;;;;;;;5.65;2.22;;;;;;;20.57;59.55;101897.25;20960097;28;20052;-70
2023/06/07 07:06:27;;;;;;;4.00;2.05;;;;;;;20.60;59.45;101907.78;20959792;28;20049;-70
2023/06/07 07:16:30;;;;;;;3.85;2.00;;;;;;;20.65;59.26;101913.69;20955809;28;20123;-70
2023/06/07 07:26:32;;;;;;;4.93;2.05;;;;;;;20.72;59.02;101906.75;20969462;28;20416;-70
2023/06/07 07:36:33;;;;;;;3.45;1.75;;;;;;;20.83;58.61;101902.31;20947758;28;20071;-69
2023/06/07 07:46:36;;;;;;;3.05;1.80;;;;;;;20.91;58.66;101913.34;20972848;28;20115;-69
2023/06/07 07:56:38;;;;;;;3.47;1.88;;;;;;;21.16;58.47;101913.91;20981875;28;20048;-69
2023/06/07 08:06:39;;;;;;;3.78;1.83;;;;;;;21.33;58.87;101914.31;20941426;28;20127;-72
2023/06/07 08:16:41;;;;;;;4.45;1.70;;;;;;;22.61;55.54;101910.13;20959617;28;20053;-70
2023/06/07 08:26:45;;;;;;;4.25;2.25;;;;;;;23.90;52.48;101906.91;20982918;28;20087;-71
2023/06/07 08:36:48;;;;;;;4.88;2.05;;;;;;;24.39;51.19;101899.44;20940608;28;20221;-69
2023/06/07 08:46:51;;;;;;;4.43;1.80;;;;;;;24.62;50.79;101894.34;20972899;28;20413;-68
2023/06/07 08:56:55;;;;;;;5.00;2.30;;;;;;;24.70;49.95;101890.84;20997000;28;20544;-68
2023/06/07 09:06:56;;;;;;;4.30;2.22;;;;;;;23.88;51.02;101881.72;20885452;28;20413;-68
2023/06/07 09:16:59;;;;;;;6.18;1.98;;;;;;;23.23;52.86;101877.13;20884003;28;20505;-68
2023/06/07 09:27:02;;;;;;;2.50;1.90;;;;;;;22.85;54.17;101885.25;20950942;28;20044;-69
2023/06/07 09:37:05;;;;;;;3.43;1.83;;;;;;;22.65;55.12;101878.97;20979753;28;20457;-70
2023/06/07 09:47:18;;;;;;;3.88;1.63;;;;;;;22.54;55.18;101879.13;20935842;28;20400;-69
2023/06/07 09:57:23;;;;;;;4.13;2.03;;;;;;;22.45;55.54;101883.53;20910171;28;20066;-69
2023/06/07 10:07:28;;;;;;;2.72;1.75;;;;;;;22.39;55.80;101875.97;20925212;28;20558;-70
2023/06/07 10:17:51;;;;;;;3.28;1.85;;;;;;;22.36;55.76;101868.94;20926241;28;20110;-70
2023/06/07 10:28:08;;;;;;;3.38;2.42;;;;;;;22.32;55.99;101859.38;20982356;28;20068;-70
2023/06/07 10:38:11;;;;;;;5.20;1.85;;;;;;;22.32;56.06;101864.81;21003738;28;20537;-69
2023/06/07 10:48:34;;;;;;;2.97;1.60;;;;;;;22.33;56.00;101846.69;20963771;28;20048;-69
2023/06/07 10:58:36;;;;;;;3.10;1.60;;;;;;;22.31;56.00;101844.94;20987911;28;20404;-69
2023/06/07 11:08:40;;;;;;;2.88;1.70;;;;;;;22.30;56.04;101842.41;20989403;28;20048;-69
2023/06/07 11:18:57;;;;;;;3.83;1.70;;;;;;;22.29;56.27;101837.97;20972689;28;20045;-68
2023/06/07 11:28:59;;;;;;;2.67;1.63;;;;;;;22.26;56.24;101830.13;20963942;28;20052;-68
2023/06/07 11:39:05;;;;;;;2.30;1.60;;;;;;;22.23;56.31;101823.13;20956610;28;20049;-68
2023/06/07 11:49:09;;;;;;;3.97;1.70;;;;;;;22.23;56.85;101819.56;20950349;28;20068;-69
2023/06/07 11:59:10;;;;;;;3.70;2.00;;;;;;;22.20;56.68;101826.13;20930053;28;20049;-68
2023/06/07 12:09:12;;;;;;;3.97;1.70;;;;;;;22.19;56.90;101812.72;20935416;28;20045;-69
2023/06/07 12:19:14;;;;;;;3.70;2.00;;;;;;;22.19;56.88;101818.13;20925189;28;20040;-68
2023/06/07 12:29:16;;;;;;;3.08;1.90;;;;;;;22.19;56.98;101818.13;20973885;28;20130;-68
2023/06/07 12:39:18;;;;;;;4.22;1.90;;;;;;;22.17;56.81;101820.97;20938438;28;20573;-69
2023/06/07 12:49:20;;;;;;;2.65;1.70;;;;;;;22.15;57.26;101810.28;20939785;28;20040;-70
2023/06/07 12:59:21;;;;;;;2.53;1.80;;;;;;;22.13;57.41;101796.03;20939119;28;20085;-70
2023/06/07 13:09:24;;;;;;;3.35;1.85;;;;;;;22.12;57.34;101788.88;20934637;28;20435;-70
2023/06/07 13:19:26;;;;;;;3.83;2.08;;;;;;;22.09;57.52;101786.44;20926867;28;20290;-70
2023/06/07 13:29:27;;;;;;;2.55;1.70;;;;;;;22.06;57.43;101783.16;20916004;28;20103;-71
2023/06/07 13:39:29;;;;;;;3.50;1.90;;;;;;;22.05;57.93;101773.31;20931365;28;20699;-70
2023/06/07 13:49:31;;;;;;;2.17;1.70;;;;;;;22.03;57.68;101768.03;20943086;28;20128;-71
2023/06/07 13:59:32;;;;;;;2.28;1.50;;;;;;;22.01;58.17;101770.03;20936798;28;20052;-70
2023/06/07 14:09:34;;;;;;;2.05;1.50;;;;;;;22.00;58.22;101752.03;20934744;28;20049;-70
2023/06/07 14:19:36;;;;;;;3.33;2.10;;;;;;;21.95;58.19;101743.47;20925988;28;20052;-70
2023/06/07 14:29:37;;;;;;;4.05;2.30;;;;;;;21.94;58.90;101750.78;20985628;28;20127;-70
2023/06/07 14:39:40;;;;;;;4.80;2.40;;;;;;;21.89;59.42;101750.34;20974791;28;20048;-70
2023/06/07 14:49:41;;;;;;;4.15;2.25;;;;;;;21.85;59.72;101736.22;20937783;28;20044;-69
2023/06/07 14:59:43;;;;;;;4.00;2.70;;;;;;;21.85;60.31;101730.78;20923410;28;20777;-69
2023/06/07 15:09:44;;;;;;;3.08;2.20;;;;;;;21.86;60.63;101728.91;20931173;28;20041;-64
2023/06/07 15:19:46;;;;;;;5.63;2.35;;;;;;;21.85;60.75;101730.78;20928093;28;20131;-65
2023/06/07 15:29:48;;;;;;;7.50;2.72;;;;;;;21.79;60.67;101736.78;20912894;28;20045;-69
2023/06/07 15:39:49;;;;;;;3.88;2.20;;;;;;;21.81;60.93;101723.06;20905204;28;20512;-69
2023/06/07 15:49:51;;;;;;;4.68;2.80;;;;;;;21.88;62.11;101714.25;20905953;28;20048;-69
2023/06/07 15:59:52;;;;;;;3.38;2.45;;;;;;;21.92;62.89;101712.13;20893995;28;20047;-69
2023/06/07 16:09:54;;;;;;;3.28;2.50;;;;;;;21.97;63.90;101711.66;20917103;28;20136;-70
2023/06/07 16:19:57;;;;;;;4.82;3.15;;;;;;;22.05;65.82;101719.94;20949092;28;20140;-71
2023/06/07 16:29:59;;;;;;;3.83;2.30;;;;;;;22.11;67.22;101715.78;20931304;28;20063;-72
2023/06/07 16:40:06;;;;;;;3.03;2.05;;;;;;;22.12;66.80;101709.38;20937270;28;20049;-72
2023/06/07 16:50:09;;;;;;;3.17;2.25;;;;;;;22.10;66.21;101700.53;20931839;28;20056;-71
2023/06/07 17:00:12;;;;;;;4.88;3.10;;;;;;;22.08;65.73;101716.09;20904516;28;20563;-70
2023/06/07 17:10:13;;;;;;;3.38;2.20;;;;;;;22.05;65.19;101719.94;20911302;28;20051;-69
2023/06/07 17:20:15;;;;;;;4.63;2.35;;;;;;;21.98;64.17;101733.22;20898348;28;20137;-69
2023/06/07 17:30:17;;;;;;;4.80;2.45;;;;;;;21.92;63.67;101730.22;20901416;28;20047;-67
2023/06/07 17:40:18;;;;;;;5.50;2.50;;;;;;;21.84;63.50;101722.78;20982726;28;20080;-67
2023/06/07 17:50:22;;;;;;;4.53;2.40;;;;;;;21.78;63.29;101723.38;20956017;28;20049;-67
2023/06/07 18:00:45;;;;;;;4.80;2.20;;;;;;;21.72;63.26;101719.38;20935698;28;20049;-68
2023/06/07 18:10:50;;;;;;;4.57;2.60;;;;;;;21.67;62.95;101721.66;20930112;28;20138;-67
2023/06/07 18:20:52;;;;;;;3.88;2.22;;;;;;;21.62;62.92;101729.31;20944486;28;20057;-67
2023/06/07 18:30:54;;;;;;;5.07;2.80;;;;;;;21.57;62.39;101733.28;20979587;28;20061;-67
2023/06/07 18:40:56;;;;;;;3.92;2.85;;;;;;;21.52;62.03;101734.75;21022669;28;20131;-67
2023/06/07 18:50:57;;;;;;;4.75;2.72;;;;;;;21.47;61.79;101732.44;21061717;28;20494;-67
2023/06/07 19:00:59;;;;;;;4.10;2.55;;;;;;;21.43;61.71;101725.59;21048851;28;20090;-67
2023/06/07 19:11:01;;;;;;;4.57;2.92;;;;;;;21.38;61.28;101741.41;20952933;28;20048;-67
2023/06/07 19:21:03;;;;;;;5.10;3.08;;;;;;;21.34;61.34;101743.53;20966837;28;20515;-67
2023/06/07 19:31:05;;;;;;;4.95;3.08;;;;;;;21.32;61.32;101739.25;20972898;28;20581;-67
2023/06/07 19:41:06;;;;;;;4.65;3.10;;;;;;;21.25;61.33;101749.78;20983285;28;20045;-67
2023/06/07 19:51:08;;;;;;;6.78;3.28;;;;;;;21.22;61.33;101750.06;20962218;28;20500;-67
2023/06/07 20:01:10;;;;;;;6.90;2.95;;;;;;;21.21;63.95;101759.16;20963131;28;20567;-67
2023/06/07 20:11:12;;;;;;;4.75;2.92;;;;;;;21.19;63.41;101766.56;20964962;28;20036;-67
2023/06/07 20:21:14;;;;;;;5.03;3.30;;;;;;;21.17;63.21;101758.56;20977360;28;20045;-67
2023/06/07 20:31:15;;;;;;;6.03;3.22;;;;;;;21.15;63.32;101744.31;20945126;28;20044;-67
2023/06/07 20:41:17;;;;;;;5.00;2.90;;;;;;;21.12;63.27;101755.44;20956719;28;20536;-67
2023/06/07 20:51:20;;;;;;;4.18;2.60;;;;;;;21.07;62.90;101757.69;20970695;28;20408;-67
2023/06/07 21:01:22;;;;;;;5.03;2.53;;;;;;;21.04;62.79;101768.78;20965560;28;20416;-67
2023/06/07 21:11:23;;;;;;;4.80;2.72;;;;;;;21.00;62.61;101762.81;20943170;28;20041;-67
2023/06/07 21:21:25;;;;;;;4.13;2.60;;;;;;;20.91;62.22;101748.22;20962605;28;20048;-68
2023/06/07 21:31:27;;;;;;;3.53;2.42;;;;;;;20.96;62.09;101759.50;20956157;28;20076;-67
2023/06/07 21:41:29;;;;;;;6.60;3.50;;;;;;;20.92;61.91;101755.38;20949661;28;20119;-67
2023/06/07 21:51:30;;;;;;;3.78;2.85;;;;;;;20.91;61.70;101758.19;20963918;28;20507;-68
2023/06/07 22:01:32;;;;;;;5.03;2.90;;;;;;;20.90;61.46;101767.31;20957834;28;20517;-67
2023/06/07 22:11:33;;;;;;;5.20;2.70;;;;;;;20.88;61.34;101762.03;20962663;28;20132;-67
2023/06/07 22:21:35;;;;;;;5.43;2.85;;;;;;;20.87;61.04;101763.03;20980335;28;20068;-67
2023/06/07 22:31:38;;;;;;;4.45;2.78;;;;;;;20.88;60.93;101763.88;20969393;28;20504;-67
2023/06/07 22:41:40;;;;;;;4.18;2.50;;;;;;;20.87;60.76;101757.63;20932372;28;20551;-67
2023/06/07 22:51:42;;;;;;;3.45;2.45;;;;;;;20.86;60.56;101772.16;20957098;28;20492;-67
2023/06/07 23:01:46;;;;;;;3.00;2.28;;;;;;;20.85;60.36;101765.03;20958411;28;20121;-67
2023/06/07 23:11:48;;;;;;;3.55;2.30;;;;;;;20.77;60.18;101740.44;20945806;28;20044;-68
2023/06/07 23:21:50;;;;;;;4.13;2.58;;;;;;;20.81;59.90;101747.34;20945323;28;20053;-67
2023/06/07 23:31:53;;;;;;;2.80;2.17;;;;;;;20.78;59.70;101742.16;20948408;28;20044;-68
2023/06/07 23:41:56;;;;;;;3.60;2.15;;;;;;;20.75;59.87;101747.81;20950294;28;20059;-67
2023/06/07 23:51:57;;;;;;;2.92;2.20;;;;;;;20.73;59.87;101751.53;20936677;28;20052;-67
